Mojo_ii — FAB2678 — position and weather

sailwx.info

Track history (hours):
 
Tides and Currents Weather Stations Pressure Air Temp Water Temp Dewpoint Dewpoint Depression Visibility Wind Speed Wind Dir Waves Ship Positions

Mojo_ii

Last reported at 2018-May-25 14:52 UTC. Time now 2018-May-25 22:44 UTC.
Position N 38°32' W 028°38'.

Type: Sailing vessel. MMSI: 227185390.

Date/timePositionNaut miles runAvg speedWind from/ knotsBaromVisibWave heightAir tempDewpointWater temp
2018-May-25 14:52N 38°32' W 028°38'0 0.0
2018-May-25 14:28N 38°32' W 028°38'0 0.1
2018-May-25 14:00N 38°32' W 028°38'0 0.2
2018-May-25 13:29N 38°32' W 028°38'0 0.6
2018-May-25 13:00N 38°32' W 028°37'2 3.4
2018-May-25 12:30N 38°30' W 028°38'2 4.5
2018-May-25 12:01N 38°30' W 028°40'2 4.2
2018-May-25 11:30N 38°28' W 028°43'2 4.4
2018-May-25 11:00N 38°26' W 028°44'2 4.8
2018-May-25 10:30N 38°26' W 028°47'3 5.1
2018-May-25 10:00N 38°25' W 028°50'3 5.1
2018-May-25 09:30N 38°24' W 028°53'2 3.9
2018-May-25 09:00N 38°24' W 028°55'2 4.9
2018-May-25 08:30N 38°23' W 028°58'3 6.3
2018-May-25 08:00N 38°22' W 029°02'3 6.7
2018-May-25 07:30N 38°21' W 029°06'3 5.7
2018-May-25 06:58N 38°19' W 029°10'2 4.4
2018-May-25 06:29N 38°18' W 029°12'2 4.4
2018-May-25 06:00N 38°18' W 029°14'2 4.6
2018-May-25 05:30N 38°17' W 029°17'2 4.6
2018-May-25 05:00N 38°16' W 029°20'2 4.6
2018-May-25 04:30N 38°14' W 029°22'2 4.4
2018-May-25 04:00N 38°13' W 029°25'2 4.5
2018-May-25 03:30N 38°12' W 029°27'2 4.2
2018-May-25 02:59N 38°12' W 029°30'2 4.3
2018-May-25 02:29N 38°11' W 029°32'2 4.2
2018-May-25 01:59N 38°10' W 029°35'2 4.1
2018-May-25 01:30N 38°09' W 029°37'  
Track history (hours):
 
Tides and Currents Weather Stations Pressure Air Temp Water Temp Dewpoint Dewpoint Depression Visibility Wind Speed Wind Dir Waves Ship Positions

Mojo_ii

Last reported at 2018-May-25 14:52 UTC. Time now 2018-May-25 22:44 UTC.
Position N 38°32' W 028°38'.

Type: Sailing vessel. MMSI: 227185390.

Date/timePositionNaut miles runAvg speedWind from/ knotsBaromVisibWave heightAir tempDewpointWater temp
2018-May-25 14:52N 38°32' W 028°38'0 0.0
2018-May-25 14:28N 38°32' W 028°38'0 0.1
2018-May-25 14:00N 38°32' W 028°38'0 0.2
2018-May-25 13:29N 38°32' W 028°38'0 0.6
2018-May-25 13:00N 38°32' W 028°37'2 3.4
2018-May-25 12:30N 38°30' W 028°38'2 4.5
2018-May-25 12:01N 38°30' W 028°40'2 4.2
2018-May-25 11:30N 38°28' W 028°43'2 4.4
2018-May-25 11:00N 38°26' W 028°44'2 4.8
2018-May-25 10:30N 38°26' W 028°47'3 5.1
2018-May-25 10:00N 38°25' W 028°50'3 5.1
2018-May-25 09:30N 38°24' W 028°53'2 3.9
2018-May-25 09:00N 38°24' W 028°55'2 4.9
2018-May-25 08:30N 38°23' W 028°58'3 6.3
2018-May-25 08:00N 38°22' W 029°02'3 6.7
2018-May-25 07:30N 38°21' W 029°06'3 5.7
2018-May-25 06:58N 38°19' W 029°10'2 4.4
2018-May-25 06:29N 38°18' W 029°12'2 4.4
2018-May-25 06:00N 38°18' W 029°14'2 4.6
2018-May-25 05:30N 38°17' W 029°17'2 4.6
2018-May-25 05:00N 38°16' W 029°20'2 4.6
2018-May-25 04:30N 38°14' W 029°22'2 4.4
2018-May-25 04:00N 38°13' W 029°25'2 4.5
2018-May-25 03:30N 38°12' W 029°27'2 4.2
2018-May-25 02:59N 38°12' W 029°30'2 4.3
2018-May-25 02:29N 38°11' W 029°32'2 4.2
2018-May-25 01:59N 38°10' W 029°35'2 4.1
2018-May-25 01:30N 38°09' W 029°37'  

Dump ship's entire track history